sensor_id;sensor_type;location;lat;lon;timestamp;P1;durP1;ratioP1;P2;durP2;ratioP2
79562;SDS011;69026;50.980;11.314;2023-05-07T10:28:22;4.30;;;1.80;;
79562;SDS011;69026;50.980;11.314;2023-05-07T10:33:42;6.88;;;2.28;;
79562;SDS011;69026;50.980;11.314;2023-05-07T10:36:10;5.78;;;2.30;;
79562;SDS011;69026;50.980;11.314;2023-05-07T10:38:36;3.60;;;1.90;;
79562;SDS011;69026;50.980;11.314;2023-05-07T10:41:02;4.10;;;2.20;;
79562;SDS011;69026;50.980;11.314;2023-05-07T10:43:41;6.05;;;2.30;;
79562;SDS011;69026;50.980;11.314;2023-05-07T10:51:43;4.43;;;2.15;;
79562;SDS011;69026;50.980;11.314;2023-05-07T10:54:23;3.08;;;2.40;;
79562;SDS011;69026;50.980;11.314;2023-05-07T10:56:57;5.10;;;2.17;;
79562;SDS011;69026;50.980;11.314;2023-05-07T11:00:40;4.20;;;2.20;;
79562;SDS011;69026;50.980;11.314;2023-05-07T11:05:39;4.88;;;2.40;;
79562;SDS011;69026;50.980;11.314;2023-05-07T11:08:14;4.57;;;2.33;;
79562;SDS011;69026;50.980;11.314;2023-05-07T11:16:37;4.05;;;2.22;;
79562;SDS011;69026;50.980;11.314;2023-05-07T11:25:22;4.05;;;2.35;;
79562;SDS011;69026;50.980;11.314;2023-05-07T11:27:55;5.72;;;2.28;;
79562;SDS011;69026;50.980;11.314;2023-05-07T11:30:23;4.82;;;2.28;;
79562;SDS011;69026;50.980;11.314;2023-05-07T11:32:49;6.03;;;2.55;;
79562;SDS011;69026;50.980;11.314;2023-05-07T11:35:16;5.40;;;2.30;;
79562;SDS011;69026;50.980;11.314;2023-05-07T11:37:45;5.80;;;2.38;;
79562;SDS011;69026;50.980;11.314;2023-05-07T11:40:13;5.13;;;2.80;;
79562;SDS011;69026;50.980;11.314;2023-05-07T11:42:39;4.57;;;2.60;;
79562;SDS011;69026;50.980;11.314;2023-05-07T11:45:08;5.75;;;2.30;;
79562;SDS011;69026;50.980;11.314;2023-05-07T11:47:34;5.25;;;2.17;;
79562;SDS011;69026;50.980;11.314;2023-05-07T11:50:04;5.40;;;2.40;;
79562;SDS011;69026;50.980;11.314;2023-05-07T11:52:31;3.45;;;2.38;;
79562;SDS011;69026;50.980;11.314;2023-05-07T11:54:58;4.82;;;2.30;;
79562;SDS011;69026;50.980;11.314;2023-05-07T11:57:29;5.60;;;2.00;;
79562;SDS011;69026;50.980;11.314;2023-05-07T11:59:55;3.90;;;2.00;;
79562;SDS011;69026;50.980;11.314;2023-05-07T12:02:22;3.33;;;2.13;;
79562;SDS011;69026;50.980;11.314;2023-05-07T12:04:53;3.95;;;2.08;;
79562;SDS011;69026;50.980;11.314;2023-05-07T12:07:20;5.85;;;2.70;;
79562;SDS011;69026;50.980;11.314;2023-05-07T12:09:46;2.80;;;2.10;;
79562;SDS011;69026;50.980;11.314;2023-05-07T12:12:13;4.50;;;2.40;;
79562;SDS011;69026;50.980;11.314;2023-05-07T12:14:43;3.58;;;2.22;;
79562;SDS011;69026;50.980;11.314;2023-05-07T12:17:10;3.13;;;2.20;;
79562;SDS011;69026;50.980;11.314;2023-05-07T12:19:39;4.65;;;2.28;;
79562;SDS011;69026;50.980;11.314;2023-05-07T12:22:07;5.18;;;2.20;;
79562;SDS011;69026;50.980;11.314;2023-05-07T12:24:50;3.13;;;2.15;;
79562;SDS011;69026;50.980;11.314;2023-05-07T12:27:22;2.58;;;1.77;;
79562;SDS011;69026;50.980;11.314;2023-05-07T12:29:49;4.72;;;2.15;;
79562;SDS011;69026;50.980;11.314;2023-05-07T12:32:16;6.63;;;2.63;;
79562;SDS011;69026;50.980;11.314;2023-05-07T12:34:44;4.80;;;2.40;;
79562;SDS011;69026;50.980;11.314;2023-05-07T12:37:10;3.38;;;2.15;;
79562;SDS011;69026;50.980;11.314;2023-05-07T12:39:36;3.92;;;2.83;;
79562;SDS011;69026;50.980;11.314;2023-05-07T12:42:02;3.35;;;2.10;;
79562;SDS011;69026;50.980;11.314;2023-05-07T12:44:31;2.70;;;2.20;;
79562;SDS011;69026;50.980;11.314;2023-05-07T12:46:58;3.78;;;2.30;;
79562;SDS011;69026;50.980;11.314;2023-05-07T12:49:27;4.40;;;2.35;;
79562;SDS011;69026;50.980;11.314;2023-05-07T12:51:53;2.78;;;1.80;;
79562;SDS011;69026;50.980;11.314;2023-05-07T12:54:29;4.15;;;2.10;;
79562;SDS011;69026;50.980;11.314;2023-05-07T12:57:02;4.78;;;2.17;;
79562;SDS011;69026;50.980;11.314;2023-05-07T12:59:38;3.55;;;1.90;;
79562;SDS011;69026;50.980;11.314;2023-05-07T13:02:07;3.92;;;2.00;;
79562;SDS011;69026;50.980;11.314;2023-05-07T13:04:35;4.32;;;2.17;;
79562;SDS011;69026;50.980;11.314;2023-05-07T13:07:01;2.45;;;1.90;;
79562;SDS011;69026;50.980;11.314;2023-05-07T13:09:28;6.97;;;2.65;;
79562;SDS011;69026;50.980;11.314;2023-05-07T13:11:57;6.30;;;2.75;;
79562;SDS011;69026;50.980;11.314;2023-05-07T13:14:26;7.97;;;2.90;;
79562;SDS011;69026;50.980;11.314;2023-05-07T13:16:52;7.60;;;2.90;;
79562;SDS011;69026;50.980;11.314;2023-05-07T13:19:18;10.00;;;3.47;;
79562;SDS011;69026;50.980;11.314;2023-05-07T13:21:44;6.38;;;3.13;;
79562;SDS011;69026;50.980;11.314;2023-05-07T13:24:10;7.20;;;3.22;;
79562;SDS011;69026;50.980;11.314;2023-05-07T13:26:35;5.50;;;3.50;;
79562;SDS011;69026;50.980;11.314;2023-05-07T13:29:01;2.80;;;2.15;;
79562;SDS011;69026;50.980;11.314;2023-05-07T13:31:27;7.00;;;4.00;;
79562;SDS011;69026;50.980;11.314;2023-05-07T13:33:53;9.80;;;4.70;;
79562;SDS011;69026;50.980;11.314;2023-05-07T13:36:19;8.68;;;4.70;;
79562;SDS011;69026;50.980;11.314;2023-05-07T13:38:45;8.27;;;4.50;;
79562;SDS011;69026;50.980;11.314;2023-05-07T13:41:11;8.13;;;4.38;;
79562;SDS011;69026;50.980;11.314;2023-05-07T13:43:38;6.68;;;3.63;;
79562;SDS011;69026;50.980;11.314;2023-05-07T13:46:04;10.50;;;4.07;;
79562;SDS011;69026;50.980;11.314;2023-05-07T13:48:30;7.22;;;3.92;;
79562;SDS011;69026;50.980;11.314;2023-05-07T13:50:55;5.65;;;3.72;;
79562;SDS011;69026;50.980;11.314;2023-05-07T13:53:21;7.45;;;3.25;;
79562;SDS011;69026;50.980;11.314;2023-05-07T13:55:47;6.20;;;3.75;;
79562;SDS011;69026;50.980;11.314;2023-05-07T13:58:13;6.60;;;4.40;;
79562;SDS011;69026;50.980;11.314;2023-05-07T14:00:39;7.28;;;4.32;;
79562;SDS011;69026;50.980;11.314;2023-05-07T14:03:05;8.48;;;4.18;;
79562;SDS011;69026;50.980;11.314;2023-05-07T14:05:30;9.10;;;5.07;;
79562;SDS011;69026;50.980;11.314;2023-05-07T14:07:57;6.82;;;4.20;;
79562;SDS011;69026;50.980;11.314;2023-05-07T14:10:23;8.55;;;4.85;;
79562;SDS011;69026;50.980;11.314;2023-05-07T14:12:49;7.32;;;4.47;;
79562;SDS011;69026;50.980;11.314;2023-05-07T14:15:15;8.48;;;4.93;;
79562;SDS011;69026;50.980;11.314;2023-05-07T14:17:42;7.38;;;5.03;;
79562;SDS011;69026;50.980;11.314;2023-05-07T14:20:08;7.53;;;4.05;;
79562;SDS011;69026;50.980;11.314;2023-05-07T14:22:35;8.88;;;5.03;;
79562;SDS011;69026;50.980;11.314;2023-05-07T14:25:02;9.02;;;4.00;;
79562;SDS011;69026;50.980;11.314;2023-05-07T14:27:28;8.57;;;4.63;;
79562;SDS011;69026;50.980;11.314;2023-05-07T14:29:54;6.18;;;4.47;;
79562;SDS011;69026;50.980;11.314;2023-05-07T14:32:20;9.23;;;4.50;;
79562;SDS011;69026;50.980;11.314;2023-05-07T14:34:46;6.40;;;3.50;;
79562;SDS011;69026;50.980;11.314;2023-05-07T14:37:12;8.68;;;3.85;;
79562;SDS011;69026;50.980;11.314;2023-05-07T14:39:38;5.35;;;3.60;;
79562;SDS011;69026;50.980;11.314;2023-05-07T14:42:04;7.68;;;3.67;;
79562;SDS011;69026;50.980;11.314;2023-05-07T14:44:30;6.72;;;3.83;;
79562;SDS011;69026;50.980;11.314;2023-05-07T14:46:56;4.88;;;3.33;;
79562;SDS011;69026;50.980;11.314;2023-05-07T14:49:22;4.95;;;2.92;;
79562;SDS011;69026;50.980;11.314;2023-05-07T14:51:49;6.97;;;2.95;;
79562;SDS011;69026;50.980;11.314;2023-05-07T14:54:15;6.43;;;2.60;;
79562;SDS011;69026;50.980;11.314;2023-05-07T14:56:41;5.22;;;3.08;;
79562;SDS011;69026;50.980;11.314;2023-05-07T14:59:07;4.78;;;2.50;;
79562;SDS011;69026;50.980;11.314;2023-05-07T15:01:34;4.22;;;2.53;;
79562;SDS011;69026;50.980;11.314;2023-05-07T15:04:02;6.88;;;2.97;;
79562;SDS011;69026;50.980;11.314;2023-05-07T15:06:29;4.50;;;2.38;;
79562;SDS011;69026;50.980;11.314;2023-05-07T15:08:55;4.63;;;3.03;;
79562;SDS011;69026;50.980;11.314;2023-05-07T15:11:21;4.13;;;2.83;;
79562;SDS011;69026;50.980;11.314;2023-05-07T15:13:47;4.13;;;2.60;;
79562;SDS011;69026;50.980;11.314;2023-05-07T15:16:12;5.85;;;2.88;;
79562;SDS011;69026;50.980;11.314;2023-05-07T15:18:38;3.53;;;2.50;;
79562;SDS011;69026;50.980;11.314;2023-05-07T15:21:04;5.60;;;2.60;;
79562;SDS011;69026;50.980;11.314;2023-05-07T15:23:31;4.18;;;2.20;;
79562;SDS011;69026;50.980;11.314;2023-05-07T15:25:57;3.92;;;2.85;;
79562;SDS011;69026;50.980;11.314;2023-05-07T15:28:23;4.38;;;2.45;;
79562;SDS011;69026;50.980;11.314;2023-05-07T15:30:52;4.93;;;2.53;;
79562;SDS011;69026;50.980;11.314;2023-05-07T15:33:17;6.88;;;2.65;;
79562;SDS011;69026;50.980;11.314;2023-05-07T15:35:43;2.95;;;2.40;;
79562;SDS011;69026;50.980;11.314;2023-05-07T15:38:09;3.47;;;2.30;;
79562;SDS011;69026;50.980;11.314;2023-05-07T15:40:36;3.85;;;2.63;;
79562;SDS011;69026;50.980;11.314;2023-05-07T15:43:07;5.45;;;2.83;;
79562;SDS011;69026;50.980;11.314;2023-05-07T15:45:38;4.45;;;2.15;;
79562;SDS011;69026;50.980;11.314;2023-05-07T15:48:06;4.88;;;2.58;;
79562;SDS011;69026;50.980;11.314;2023-05-07T15:50:32;4.50;;;2.60;;
79562;SDS011;69026;50.980;11.314;2023-05-07T15:52:58;2.45;;;2.00;;
79562;SDS011;69026;50.980;11.314;2023-05-07T15:55:24;3.65;;;2.53;;
79562;SDS011;69026;50.980;11.314;2023-05-07T15:57:50;4.68;;;3.05;;
79562;SDS011;69026;50.980;11.314;2023-05-07T16:00:16;3.63;;;2.60;;
79562;SDS011;69026;50.980;11.314;2023-05-07T16:02:43;5.72;;;3.10;;
79562;SDS011;69026;50.980;11.314;2023-05-07T16:05:09;4.65;;;3.13;;
79562;SDS011;69026;50.980;11.314;2023-05-07T16:07:36;2.92;;;2.60;;
79562;SDS011;69026;50.980;11.314;2023-05-07T16:10:03;2.55;;;2.15;;
79562;SDS011;69026;50.980;11.314;2023-05-07T16:12:29;4.75;;;3.28;;
79562;SDS011;69026;50.980;11.314;2023-05-07T16:14:55;4.50;;;2.53;;
79562;SDS011;69026;50.980;11.314;2023-05-07T16:17:21;6.20;;;2.40;;
79562;SDS011;69026;50.980;11.314;2023-05-07T16:19:46;3.70;;;2.45;;
79562;SDS011;69026;50.980;11.314;2023-05-07T16:22:12;3.45;;;2.83;;
79562;SDS011;69026;50.980;11.314;2023-05-07T16:24:38;4.00;;;2.50;;
79562;SDS011;69026;50.980;11.314;2023-05-07T16:27:04;3.30;;;2.47;;
79562;SDS011;69026;50.980;11.314;2023-05-07T16:29:30;3.20;;;2.60;;
79562;SDS011;69026;50.980;11.314;2023-05-07T16:31:56;4.07;;;3.10;;
79562;SDS011;69026;50.980;11.314;2023-05-07T16:34:23;3.53;;;2.53;;
79562;SDS011;69026;50.980;11.314;2023-05-07T16:36:49;4.95;;;2.80;;
79562;SDS011;69026;50.980;11.314;2023-05-07T16:39:14;3.85;;;2.65;;
79562;SDS011;69026;50.980;11.314;2023-05-07T16:41:41;3.03;;;2.30;;
79562;SDS011;69026;50.980;11.314;2023-05-07T16:44:08;5.60;;;2.80;;
79562;SDS011;69026;50.980;11.314;2023-05-07T16:46:34;3.55;;;2.78;;
79562;SDS011;69026;50.980;11.314;2023-05-07T16:49:00;2.92;;;2.60;;
79562;SDS011;69026;50.980;11.314;2023-05-07T16:51:27;2.97;;;2.58;;
79562;SDS011;69026;50.980;11.314;2023-05-07T16:53:53;4.88;;;3.00;;
79562;SDS011;69026;50.980;11.314;2023-05-07T16:56:19;3.10;;;2.60;;
79562;SDS011;69026;50.980;11.314;2023-05-07T16:58:46;3.55;;;2.75;;
79562;SDS011;69026;50.980;11.314;2023-05-07T17:01:12;3.60;;;2.50;;
79562;SDS011;69026;50.980;11.314;2023-05-07T17:03:39;3.20;;;2.30;;
79562;SDS011;69026;50.980;11.314;2023-05-07T17:06:05;3.97;;;2.97;;
79562;SDS011;69026;50.980;11.314;2023-05-07T17:08:37;3.85;;;3.33;;
79562;SDS011;69026;50.980;11.314;2023-05-07T17:11:03;3.05;;;2.70;;
79562;SDS011;69026;50.980;11.314;2023-05-07T17:13:29;3.92;;;2.95;;
79562;SDS011;69026;50.980;11.314;2023-05-07T17:15:55;4.82;;;2.17;;
79562;SDS011;69026;50.980;11.314;2023-05-07T17:18:20;3.53;;;2.92;;
79562;SDS011;69026;50.980;11.314;2023-05-07T17:20:46;3.10;;;2.45;;
79562;SDS011;69026;50.980;11.314;2023-05-07T17:23:12;4.43;;;2.70;;
79562;SDS011;69026;50.980;11.314;2023-05-07T17:25:38;3.20;;;2.50;;
79562;SDS011;69026;50.980;11.314;2023-05-07T17:28:04;2.85;;;2.40;;
79562;SDS011;69026;50.980;11.314;2023-05-07T17:30:30;3.40;;;2.75;;
79562;SDS011;69026;50.980;11.314;2023-05-07T17:32:55;3.40;;;2.50;;
79562;SDS011;69026;50.980;11.314;2023-05-07T17:35:22;3.65;;;2.80;;
79562;SDS011;69026;50.980;11.314;2023-05-07T17:37:47;3.63;;;2.70;;
79562;SDS011;69026;50.980;11.314;2023-05-07T17:40:20;4.10;;;2.70;;
79562;SDS011;69026;50.980;11.314;2023-05-07T17:42:47;4.63;;;2.75;;
79562;SDS011;69026;50.980;11.314;2023-05-07T17:45:14;3.45;;;2.63;;
79562;SDS011;69026;50.980;11.314;2023-05-07T17:47:40;3.03;;;2.30;;
79562;SDS011;69026;50.980;11.314;2023-05-07T17:50:07;3.60;;;2.92;;
79562;SDS011;69026;50.980;11.314;2023-05-07T17:55:02;6.22;;;2.65;;
79562;SDS011;69026;50.980;11.314;2023-05-07T17:57:28;3.13;;;2.47;;
79562;SDS011;69026;50.980;11.314;2023-05-07T17:59:58;4.00;;;2.47;;
79562;SDS011;69026;50.980;11.314;2023-05-07T18:02:24;3.13;;;2.67;;
79562;SDS011;69026;50.980;11.314;2023-05-07T18:04:50;3.65;;;2.60;;
79562;SDS011;69026;50.980;11.314;2023-05-07T18:07:15;3.45;;;2.72;;
79562;SDS011;69026;50.980;11.314;2023-05-07T18:09:41;3.72;;;2.90;;
79562;SDS011;69026;50.980;11.314;2023-05-07T18:12:07;3.80;;;3.00;;
79562;SDS011;69026;50.980;11.314;2023-05-07T18:14:33;2.45;;;2.25;;
79562;SDS011;69026;50.980;11.314;2023-05-07T18:16:59;2.92;;;2.53;;
79562;SDS011;69026;50.980;11.314;2023-05-07T18:19:24;4.45;;;2.30;;
79562;SDS011;69026;50.980;11.314;2023-05-07T18:21:51;3.47;;;2.60;;
79562;SDS011;69026;50.980;11.314;2023-05-07T18:24:19;4.32;;;2.50;;
79562;SDS011;69026;50.980;11.314;2023-05-07T18:26:45;3.25;;;2.60;;
79562;SDS011;69026;50.980;11.314;2023-05-07T18:29:12;3.50;;;2.78;;
79562;SDS011;69026;50.980;11.314;2023-05-07T18:31:38;4.22;;;2.40;;
79562;SDS011;69026;50.980;11.314;2023-05-07T18:34:04;2.95;;;2.50;;
79562;SDS011;69026;50.980;11.314;2023-05-07T18:36:30;3.95;;;2.72;;
79562;SDS011;69026;50.980;11.314;2023-05-07T18:38:56;3.08;;;2.30;;
79562;SDS011;69026;50.980;11.314;2023-05-07T18:41:22;2.92;;;2.60;;
79562;SDS011;69026;50.980;11.314;2023-05-07T18:43:48;2.60;;;2.00;;
79562;SDS011;69026;50.980;11.314;2023-05-07T18:46:14;3.88;;;2.33;;
79562;SDS011;69026;50.980;11.314;2023-05-07T18:48:39;3.78;;;2.72;;
79562;SDS011;69026;50.980;11.314;2023-05-07T18:51:05;2.28;;;2.08;;
79562;SDS011;69026;50.980;11.314;2023-05-07T18:53:32;3.33;;;2.33;;
79562;SDS011;69026;50.980;11.314;2023-05-07T18:55:58;2.60;;;2.40;;
79562;SDS011;69026;50.980;11.314;2023-05-07T18:58:25;3.28;;;2.50;;
79562;SDS011;69026;50.980;11.314;2023-05-07T19:00:50;3.05;;;2.40;;
79562;SDS011;69026;50.980;11.314;2023-05-07T19:03:16;3.03;;;2.30;;
79562;SDS011;69026;50.980;11.314;2023-05-07T19:05:43;3.30;;;2.15;;
79562;SDS011;69026;50.980;11.314;2023-05-07T19:08:09;2.85;;;2.40;;
79562;SDS011;69026;50.980;11.314;2023-05-07T19:10:35;2.40;;;1.98;;
79562;SDS011;69026;50.980;11.314;2023-05-07T19:13:01;3.10;;;2.20;;
79562;SDS011;69026;50.980;11.314;2023-05-07T19:15:27;3.95;;;2.20;;
79562;SDS011;69026;50.980;11.314;2023-05-07T19:17:53;2.67;;;2.45;;
79562;SDS011;69026;50.980;11.314;2023-05-07T19:20:19;2.38;;;2.10;;
79562;SDS011;69026;50.980;11.314;2023-05-07T19:22:45;3.55;;;2.50;;
79562;SDS011;69026;50.980;11.314;2023-05-07T19:25:11;2.60;;;2.00;;
79562;SDS011;69026;50.980;11.314;2023-05-07T19:27:38;2.35;;;2.15;;
79562;SDS011;69026;50.980;11.314;2023-05-07T19:30:05;2.22;;;2.03;;
79562;SDS011;69026;50.980;11.314;2023-05-07T19:32:32;2.72;;;2.35;;
79562;SDS011;69026;50.980;11.314;2023-05-07T19:34:58;2.72;;;1.88;;
79562;SDS011;69026;50.980;11.314;2023-05-07T19:37:24;2.63;;;2.10;;
79562;SDS011;69026;50.980;11.314;2023-05-07T19:39:52;2.35;;;2.15;;
79562;SDS011;69026;50.980;11.314;2023-05-07T19:42:18;2.63;;;2.10;;
79562;SDS011;69026;50.980;11.314;2023-05-07T19:44:45;3.08;;;2.70;;
79562;SDS011;69026;50.980;11.314;2023-05-07T19:47:11;2.83;;;2.20;;
79562;SDS011;69026;50.980;11.314;2023-05-07T19:49:36;2.85;;;2.42;;
79562;SDS011;69026;50.980;11.314;2023-05-07T19:52:02;2.50;;;2.00;;
79562;SDS011;69026;50.980;11.314;2023-05-07T19:54:29;2.20;;;1.90;;
79562;SDS011;69026;50.980;11.314;2023-05-07T19:56:55;2.75;;;2.08;;
79562;SDS011;69026;50.980;11.314;2023-05-07T19:59:23;2.55;;;2.22;;
79562;SDS011;69026;50.980;11.314;2023-05-07T20:01:49;2.63;;;2.10;;
79562;SDS011;69026;50.980;11.314;2023-05-07T20:04:15;2.72;;;2.38;;
79562;SDS011;69026;50.980;11.314;2023-05-07T20:06:41;2.95;;;2.45;;
79562;SDS011;69026;50.980;11.314;2023-05-07T20:09:07;2.33;;;1.98;;
79562;SDS011;69026;50.980;11.314;2023-05-07T20:11:37;2.35;;;1.98;;
79562;SDS011;69026;50.980;11.314;2023-05-07T20:14:03;2.88;;;2.30;;
79562;SDS011;69026;50.980;11.314;2023-05-07T20:16:31;2.45;;;2.17;;
79562;SDS011;69026;50.980;11.314;2023-05-07T20:18:58;2.92;;;2.22;;
79562;SDS011;69026;50.980;11.314;2023-05-07T20:21:24;3.53;;;2.15;;
79562;SDS011;69026;50.980;11.314;2023-05-07T20:23:50;2.10;;;1.90;;
79562;SDS011;69026;50.980;11.314;2023-05-07T20:26:17;2.30;;;2.10;;
79562;SDS011;69026;50.980;11.314;2023-05-07T20:28:43;3.20;;;2.05;;
79562;SDS011;69026;50.980;11.314;2023-05-07T20:31:08;2.28;;;2.08;;
79562;SDS011;69026;50.980;11.314;2023-05-07T20:33:34;2.40;;;1.80;;
79562;SDS011;69026;50.980;11.314;2023-05-07T20:36:05;2.70;;;2.00;;
79562;SDS011;69026;50.980;11.314;2023-05-07T20:38:32;2.00;;;1.65;;
79562;SDS011;69026;50.980;11.314;2023-05-07T20:41:07;2.10;;;1.90;;
79562;SDS011;69026;50.980;11.314;2023-05-07T20:43:37;3.38;;;2.10;;
79562;SDS011;69026;50.980;11.314;2023-05-07T20:46:03;2.75;;;2.20;;
79562;SDS011;69026;50.980;11.314;2023-05-07T20:48:31;2.50;;;2.28;;
79562;SDS011;69026;50.980;11.314;2023-05-07T20:50:58;4.13;;;2.10;;
79562;SDS011;69026;50.980;11.314;2023-05-07T20:53:32;2.03;;;1.80;;
79562;SDS011;69026;50.980;11.314;2023-05-07T20:55:58;2.28;;;2.00;;
79562;SDS011;69026;50.980;11.314;2023-05-07T20:58:24;2.85;;;2.08;;
79562;SDS011;69026;50.980;11.314;2023-05-07T21:00:52;2.28;;;1.92;;
79562;SDS011;69026;50.980;11.314;2023-05-07T21:03:19;2.00;;;1.70;;
79562;SDS011;69026;50.980;11.314;2023-05-07T21:05:51;3.83;;;2.33;;
79562;SDS011;69026;50.980;11.314;2023-05-07T21:08:18;2.20;;;2.00;;
79562;SDS011;69026;50.980;11.314;2023-05-07T21:10:44;2.78;;;1.80;;
79562;SDS011;69026;50.980;11.314;2023-05-07T21:13:11;2.03;;;1.70;;
79562;SDS011;69026;50.980;11.314;2023-05-07T21:15:37;2.70;;;1.65;;
79562;SDS011;69026;50.980;11.314;2023-05-07T21:18:03;2.03;;;1.83;;
79562;SDS011;69026;50.980;11.314;2023-05-07T21:20:29;2.72;;;2.00;;
79562;SDS011;69026;50.980;11.314;2023-05-07T21:22:55;2.42;;;1.90;;
79562;SDS011;69026;50.980;11.314;2023-05-07T21:25:20;2.70;;;2.00;;
79562;SDS011;69026;50.980;11.314;2023-05-07T21:27:46;2.72;;;1.80;;
79562;SDS011;69026;50.980;11.314;2023-05-07T21:30:12;2.13;;;1.92;;
79562;SDS011;69026;50.980;11.314;2023-05-07T21:32:39;2.35;;;1.70;;
79562;SDS011;69026;50.980;11.314;2023-05-07T21:35:05;1.80;;;1.70;;
79562;SDS011;69026;50.980;11.314;2023-05-07T21:37:31;3.53;;;1.90;;
79562;SDS011;69026;50.980;11.314;2023-05-07T21:39:57;2.50;;;1.92;;
79562;SDS011;69026;50.980;11.314;2023-05-07T21:42:23;2.10;;;1.65;;
79562;SDS011;69026;50.980;11.314;2023-05-07T21:44:49;2.08;;;1.80;;
79562;SDS011;69026;50.980;11.314;2023-05-07T21:47:15;2.10;;;1.50;;
79562;SDS011;69026;50.980;11.314;2023-05-07T21:49:41;2.63;;;2.00;;
79562;SDS011;69026;50.980;11.314;2023-05-07T21:52:13;1.92;;;1.42;;
79562;SDS011;69026;50.980;11.314;2023-05-07T21:54:40;2.55;;;1.80;;
79562;SDS011;69026;50.980;11.314;2023-05-07T21:57:06;2.13;;;1.77;;
79562;SDS011;69026;50.980;11.314;2023-05-07T21:59:32;2.88;;;2.22;;
79562;SDS011;69026;50.980;11.314;2023-05-07T22:01:58;2.47;;;1.85;;
79562;SDS011;69026;50.980;11.314;2023-05-07T22:04:25;2.13;;;1.88;;
79562;SDS011;69026;50.980;11.314;2023-05-07T22:06:51;2.33;;;2.13;;
79562;SDS011;69026;50.980;11.314;2023-05-07T22:09:17;1.60;;;1.40;;
79562;SDS011;69026;50.980;11.314;2023-05-07T22:11:43;2.95;;;1.90;;
79562;SDS011;69026;50.980;11.314;2023-05-07T22:14:09;1.77;;;1.50;;
79562;SDS011;69026;50.980;11.314;2023-05-07T22:16:35;1.80;;;1.50;;
79562;SDS011;69026;50.980;11.314;2023-05-07T22:19:01;2.33;;;1.83;;
79562;SDS011;69026;50.980;11.314;2023-05-07T22:21:27;2.20;;;1.67;;
79562;SDS011;69026;50.980;11.314;2023-05-07T22:23:53;1.90;;;1.67;;
79562;SDS011;69026;50.980;11.314;2023-05-07T22:26:18;2.35;;;1.73;;
79562;SDS011;69026;50.980;11.314;2023-05-07T22:28:44;2.10;;;1.80;;
79562;SDS011;69026;50.980;11.314;2023-05-07T22:31:10;1.80;;;1.55;;
79562;SDS011;69026;50.980;11.314;2023-05-07T22:33:36;2.15;;;1.77;;
79562;SDS011;69026;50.980;11.314;2023-05-07T22:36:02;2.17;;;1.60;;
79562;SDS011;69026;50.980;11.314;2023-05-07T22:38:29;2.35;;;1.52;;
79562;SDS011;69026;50.980;11.314;2023-05-07T22:40:55;2.53;;;1.83;;
79562;SDS011;69026;50.980;11.314;2023-05-07T22:43:20;2.60;;;1.95;;
79562;SDS011;69026;50.980;11.314;2023-05-07T22:45:46;2.05;;;1.60;;
79562;SDS011;69026;50.980;11.314;2023-05-07T22:48:12;1.90;;;1.60;;
79562;SDS011;69026;50.980;11.314;2023-05-07T22:50:38;1.92;;;1.77;;
79562;SDS011;69026;50.980;11.314;2023-05-07T22:53:04;2.25;;;1.80;;
79562;SDS011;69026;50.980;11.314;2023-05-07T22:55:31;2.92;;;1.90;;
79562;SDS011;69026;50.980;11.314;2023-05-07T22:57:57;2.53;;;2.05;;
79562;SDS011;69026;50.980;11.314;2023-05-07T23:00:23;2.10;;;1.90;;
79562;SDS011;69026;50.980;11.314;2023-05-07T23:02:49;2.33;;;1.70;;
79562;SDS011;69026;50.980;11.314;2023-05-07T23:05:15;2.35;;;1.90;;
79562;SDS011;69026;50.980;11.314;2023-05-07T23:07:41;3.28;;;2.00;;
79562;SDS011;69026;50.980;11.314;2023-05-07T23:10:07;2.55;;;1.88;;
79562;SDS011;69026;50.980;11.314;2023-05-07T23:12:33;3.03;;;2.30;;
79562;SDS011;69026;50.980;11.314;2023-05-07T23:14:59;2.22;;;1.88;;
79562;SDS011;69026;50.980;11.314;2023-05-07T23:17:25;2.17;;;1.70;;
79562;SDS011;69026;50.980;11.314;2023-05-07T23:19:51;3.03;;;1.98;;
79562;SDS011;69026;50.980;11.314;2023-05-07T23:22:17;2.45;;;1.50;;
79562;SDS011;69026;50.980;11.314;2023-05-07T23:24:42;2.22;;;1.65;;
79562;SDS011;69026;50.980;11.314;2023-05-07T23:27:08;2.65;;;2.05;;
79562;SDS011;69026;50.980;11.314;2023-05-07T23:29:34;2.60;;;1.77;;
79562;SDS011;69026;50.980;11.314;2023-05-07T23:32:00;2.53;;;1.73;;
79562;SDS011;69026;50.980;11.314;2023-05-07T23:34:26;3.17;;;2.20;;
79562;SDS011;69026;50.980;11.314;2023-05-07T23:36:52;2.60;;;1.67;;
79562;SDS011;69026;50.980;11.314;2023-05-07T23:39:18;2.72;;;1.80;;
79562;SDS011;69026;50.980;11.314;2023-05-07T23:41:44;2.80;;;2.30;;
79562;SDS011;69026;50.980;11.314;2023-05-07T23:44:10;2.80;;;2.03;;
79562;SDS011;69026;50.980;11.314;2023-05-07T23:46:37;2.50;;;2.10;;
79562;SDS011;69026;50.980;11.314;2023-05-07T23:49:03;2.97;;;2.15;;
79562;SDS011;69026;50.980;11.314;2023-05-07T23:51:29;2.22;;;2.03;;
79562;SDS011;69026;50.980;11.314;2023-05-07T23:53:55;2.38;;;1.85;;
79562;SDS011;69026;50.980;11.314;2023-05-07T23:56:21;2.08;;;1.55;;
79562;SDS011;69026;50.980;11.314;2023-05-07T23:58:48;2.20;;;1.80;;
